Time;durP1;ratioP1;P1;durP2;ratioP2;P2;SDS_P1;SDS_P2;PMS_P1;PMS_P2;Temp;Humidity;BMP_temperature;BMP_pressure;BME280_temperature;BME280_humidity;BME280_pressure;Samples;Min_cycle;Max_cycle;Signal;HPM_P1;HPM_P2
2023/07/21 00:01:48;;;;;;;0.10;0.10;;;;;;;22.61;52.22;101334.03;5014079;28;20053;-61
2023/07/21 00:04:14;;;;;;;0.10;0.10;;;;;;;22.94;52.22;101332.22;5032513;28;20099;-60
2023/07/21 00:06:44;;;;;;;0.00;0.00;;;;;;;23.03;51.83;101333.19;5033148;28;20485;-61
2023/07/21 00:09:10;;;;;;;0.00;0.00;;;;;;;23.09;51.30;101329.28;5032692;28;20168;-60
2023/07/21 00:11:38;;;;;;;0.10;0.10;;;;;;;22.93;52.03;101335.25;5032558;28;20413;-61
2023/07/21 00:14:05;;;;;;;0.10;0.10;;;;;;;22.80;53.08;101319.53;5032417;28;20117;-61
2023/07/21 00:16:33;;;;;;;0.10;0.10;;;;;;;22.91;52.93;101319.09;5032438;28;20042;-61
2023/07/21 00:18:58;;;;;;;0.05;0.05;;;;;;;22.90;51.70;101320.19;5014752;28;20393;-61
2023/07/21 00:21:24;;;;;;;0.10;0.10;;;;;;;22.94;51.98;101329.47;5032576;28;20087;-61
2023/07/21 00:23:51;;;;;;;0.10;0.10;;;;;;;22.92;52.22;101317.97;5032136;28;20041;-62
2023/07/21 00:26:16;;;;;;;0.10;0.10;;;;;;;22.34;54.61;101317.34;5032096;28;20029;-59
2023/07/21 00:28:42;;;;;;;0.10;0.10;;;;;;;22.53;53.70;101309.97;5032277;28;20034;-60
2023/07/21 00:31:07;;;;;;;0.00;0.00;;;;;;;22.90;53.03;101313.94;5031868;28;20527;-60
2023/07/21 00:33:33;;;;;;;0.10;0.10;;;;;;;22.74;53.13;101307.84;5032653;28;20470;-61
2023/07/21 00:35:58;;;;;;;0.10;0.10;;;;;;;22.69;53.69;101307.91;5032159;28;20156;-60
2023/07/21 00:38:25;;;;;;;0.00;0.00;;;;;;;22.77;53.32;101312.72;5031661;28;20050;-59
2023/07/21 00:40:50;;;;;;;0.10;0.10;;;;;;;22.72;53.20;101301.84;5031926;28;20121;-61
2023/07/21 00:43:16;;;;;;;0.10;0.10;;;;;;;22.74;53.48;101316.06;5032016;28;20140;-60
2023/07/21 00:45:42;;;;;;;0.10;0.10;;;;;;;22.63;54.01;101309.88;5032012;28;20055;-61
2023/07/21 00:48:08;;;;;;;0.10;0.10;;;;;;;22.73;53.70;101311.69;5031410;28;20034;-61
2023/07/21 00:50:42;;;;;;;0.00;0.00;;;;;;;22.82;53.21;101306.38;5031682;28;20553;-61
2023/07/21 00:53:09;;;;;;;0.10;0.10;;;;;;;22.72;54.00;101304.59;5031600;28;20041;-60
2023/07/21 00:55:35;;;;;;;0.10;0.10;;;;;;;22.79;54.10;101299.53;5031321;28;20068;-60
2023/07/21 00:58:00;;;;;;;0.10;0.10;;;;;;;22.74;53.58;101307.03;5031737;28;20528;-60
2023/07/21 01:00:27;;;;;;;0.10;0.10;;;;;;;22.58;54.15;101301.72;5031774;28;20325;-61
2023/07/21 01:02:53;;;;;;;0.10;0.10;;;;;;;22.75;53.36;101294.94;5031243;28;20107;-61
2023/07/21 01:05:19;;;;;;;0.10;0.10;;;;;;;22.61;54.76;101298.41;5031529;28;20148;-60
2023/07/21 01:07:45;;;;;;;0.10;0.10;;;;;;;22.80;53.71;101297.63;5031523;28;20060;-60
2023/07/21 01:10:11;;;;;;;0.10;0.10;;;;;;;22.77;53.32;101282.56;5031108;28;20401;-61
2023/07/21 01:12:37;;;;;;;0.10;0.10;;;;;;;22.59;53.98;101289.66;5031553;28;20033;-61
2023/07/21 01:15:03;;;;;;;0.10;0.10;;;;;;;22.43;54.94;101290.94;5031146;28;20047;-61
2023/07/21 01:17:31;;;;;;;0.10;0.10;;;;;;;22.54;54.10;101289.69;5030789;28;20079;-61
2023/07/21 01:19:59;;;;;;;0.05;0.05;;;;;;;22.32;55.27;101285.88;5012962;28;20037;-62
2023/07/21 01:22:46;;;;;;;0.10;0.10;;;;;;;22.25;55.76;101285.44;5012661;28;20071;-62
2023/07/21 01:25:13;;;;;;;0.20;0.20;;;;;;;22.22;56.09;101280.50;5031133;28;20036;-61
2023/07/21 01:27:40;;;;;;;0.10;0.10;;;;;;;22.14;56.05;101281.97;5031229;28;20029;-62
2023/07/21 01:30:10;;;;;;;0.10;0.10;;;;;;;22.14;55.93;101283.88;5031042;28;20025;-61
2023/07/21 01:32:37;;;;;;;0.10;0.10;;;;;;;21.99;56.48;101282.16;5030507;28;20041;-61
2023/07/21 01:35:04;;;;;;;0.10;0.10;;;;;;;21.97;56.56;101276.16;5030717;28;20493;-61
2023/07/21 01:37:31;;;;;;;0.00;0.00;;;;;;;21.83;57.26;101278.75;5030573;28;20442;-61
2023/07/21 01:39:58;;;;;;;0.10;0.10;;;;;;;22.07;56.58;101273.31;5030858;28;20057;-60
2023/07/21 01:42:29;;;;;;;0.10;0.10;;;;;;;22.11;56.76;101268.06;5031445;28;20021;-60
2023/07/21 01:44:56;;;;;;;0.10;0.10;;;;;;;21.91;57.24;101252.69;5030643;28;20172;-61
2023/07/21 01:47:21;;;;;;;0.10;0.10;;;;;;;22.18;56.18;101252.09;5030763;28;20052;-60
2023/07/21 01:49:47;;;;;;;0.10;0.10;;;;;;;21.99;56.40;101245.75;5030882;28;20497;-62
2023/07/21 01:52:16;;;;;;;0.08;0.08;;;;;;;22.02;57.33;101247.88;5030528;28;20033;-61
2023/07/21 01:55:12;;;;;;;0.05;0.05;;;;;;;22.14;56.59;101242.81;5011259;28;20030;-63
2023/07/21 01:57:40;;;;;;;0.03;0.03;;;;;;;21.99;56.71;101240.28;5010918;28;20046;-61
2023/07/21 02:00:10;;;;;;;0.10;0.10;;;;;;;22.17;56.06;101247.72;5009917;28;20046;-61
2023/07/21 02:02:37;;;;;;;0.10;0.10;;;;;;;22.01;56.78;101246.28;5010050;28;20076;-60
2023/07/21 02:05:05;;;;;;;0.10;0.10;;;;;;;21.87;57.39;101240.69;5010592;28;20034;-60
2023/07/21 02:07:31;;;;;;;0.10;0.10;;;;;;;21.87;57.37;101231.66;5009262;28;20029;-62
2023/07/21 02:09:57;;;;;;;0.10;0.10;;;;;;;21.86;57.35;101238.25;5010461;28;20033;-62
2023/07/21 02:12:23;;;;;;;0.17;0.17;;;;;;;22.04;56.75;101238.28;5010958;28;20055;-61
2023/07/21 02:14:48;;;;;;;0.10;0.10;;;;;;;22.11;57.77;101241.47;5010365;28;20064;-61
2023/07/21 02:17:14;;;;;;;0.10;0.10;;;;;;;21.99;58.24;101245.75;5028780;28;20050;-61
2023/07/21 02:19:39;;;;;;;0.10;0.10;;;;;;;21.64;60.66;101236.78;5029755;28;20041;-61
2023/07/21 02:22:05;;;;;;;0.10;0.10;;;;;;;21.74;60.45;101241.31;5030819;28;20040;-61
2023/07/21 02:24:30;;;;;;;0.10;0.10;;;;;;;21.69;60.59;101239.47;5030012;28;20030;-62
2023/07/21 02:26:56;;;;;;;0.10;0.10;;;;;;;21.90;59.84;101240.09;5030153;28;20083;-61
2023/07/21 02:29:21;;;;;;;0.10;0.10;;;;;;;21.84;60.04;101233.03;5028300;28;20032;-60
2023/07/21 02:31:49;;;;;;;0.10;0.10;;;;;;;21.79;59.78;101228.44;5029998;28;20046;-60
2023/07/21 02:34:14;;;;;;;0.00;0.00;;;;;;;21.66;60.90;101228.28;5030050;28;20473;-63
2023/07/21 02:36:40;;;;;;;0.10;0.10;;;;;;;21.50;61.73;101224.88;5030553;28;20052;-61
2023/07/21 02:39:05;;;;;;;0.10;0.10;;;;;;;21.70;60.58;101213.72;5029798;28;20042;-61
2023/07/21 02:41:30;;;;;;;0.10;0.10;;;;;;;21.74;60.16;101216.69;5029872;28;20617;-61
2023/07/21 02:43:56;;;;;;;0.10;0.10;;;;;;;21.86;60.63;101216.34;5029434;28;20440;-61
2023/07/21 02:46:21;;;;;;;0.20;0.20;;;;;;;21.76;60.58;101215.31;5029981;28;20080;-60
2023/07/21 02:48:47;;;;;;;0.10;0.10;;;;;;;21.79;59.83;101219.41;5030280;28;20683;-60
2023/07/21 02:51:12;;;;;;;0.10;0.10;;;;;;;21.64;60.29;101216.81;5029658;28;20041;-61
2023/07/21 02:53:38;;;;;;;0.15;0.15;;;;;;;21.53;60.45;101216.09;5029603;28;20508;-60
2023/07/21 02:56:03;;;;;;;0.10;0.10;;;;;;;21.45;61.74;101216.72;5029547;28;20508;-61
2023/07/21 02:58:29;;;;;;;0.10;0.10;;;;;;;21.31;61.58;101217.66;5029334;28;20109;-61
2023/07/21 03:00:55;;;;;;;0.10;0.10;;;;;;;21.38;61.11;101221.72;5029997;28;20212;-60
2023/07/21 03:03:23;;;;;;;0.10;0.10;;;;;;;21.27;62.17;101222.91;5029402;28;20045;-61
2023/07/21 03:05:48;;;;;;;0.10;0.10;;;;;;;21.25;61.88;101229.75;5029501;28;20041;-61
2023/07/21 03:08:14;;;;;;;0.10;0.10;;;;;;;21.08;61.61;101219.25;5029294;28;20045;-62
2023/07/21 03:10:40;;;;;;;0.10;0.10;;;;;;;21.28;61.78;101221.81;5029180;28;20033;-62
2023/07/21 03:13:05;;;;;;;0.10;0.10;;;;;;;21.21;61.48;101217.78;5029946;28;20083;-61
2023/07/21 03:15:30;;;;;;;0.10;0.10;;;;;;;21.37;60.57;101222.00;5029337;28;20459;-62
2023/07/21 03:17:56;;;;;;;0.10;0.10;;;;;;;21.48;60.58;101220.81;5028777;28;20041;-61
2023/07/21 03:20:21;;;;;;;0.10;0.10;;;;;;;21.66;59.77;101225.56;5028909;28;20202;-61
2023/07/21 03:22:47;;;;;;;0.10;0.10;;;;;;;21.38;61.44;101218.16;5029011;28;20038;-61
2023/07/21 03:25:13;;;;;;;0.10;0.10;;;;;;;21.36;61.21;101215.72;5028582;28;20022;-61
2023/07/21 03:27:39;;;;;;;0.10;0.10;;;;;;;21.79;59.58;101209.28;5029906;28;20013;-61
2023/07/21 03:30:07;;;;;;;0.10;0.10;;;;;;;21.40;60.49;101216.78;5029288;28;20128;-60
2023/07/21 03:32:32;;;;;;;0.10;0.10;;;;;;;21.42;61.01;101214.56;5028978;28;20040;-61
2023/07/21 03:34:57;;;;;;;0.10;0.10;;;;;;;21.62;60.58;101219.03;5028789;28;20041;-61
2023/07/21 03:37:24;;;;;;;0.15;0.15;;;;;;;21.60;61.26;101211.09;5029266;28;20029;-61
2023/07/21 03:39:49;;;;;;;0.10;0.10;;;;;;;21.44;61.79;101212.38;5029450;28;20082;-61
2023/07/21 03:42:14;;;;;;;0.10;0.10;;;;;;;21.48;61.18;101207.94;5029192;28;20033;-61
2023/07/21 03:44:40;;;;;;;0.10;0.10;;;;;;;21.52;61.23;101210.94;5029124;28;20037;-60
2023/07/21 03:47:05;;;;;;;0.10;0.10;;;;;;;21.66;61.46;101209.94;5028782;28;20512;-61
2023/07/21 03:49:31;;;;;;;0.10;0.10;;;;;;;21.59;60.85;101214.94;5029511;28;20057;-62
2023/07/21 03:51:57;;;;;;;0.10;0.10;;;;;;;21.51;62.54;101217.50;5027799;28;20096;-61
2023/07/21 03:54:22;;;;;;;0.10;0.10;;;;;;;21.25;62.63;101214.16;5028770;28;20029;-61
2023/07/21 03:56:48;;;;;;;0.10;0.10;;;;;;;21.33;63.63;101216.28;5028771;28;20128;-62
2023/07/21 03:59:13;;;;;;;0.20;0.20;;;;;;;21.21;63.54;101220.53;5028991;28;20025;-61
2023/07/21 04:01:38;;;;;;;0.10;0.10;;;;;;;21.41;63.34;101212.09;5022278;28;20072;-61
2023/07/21 04:04:04;;;;;;;0.10;0.10;;;;;;;20.88;66.07;101216.63;5009056;28;20088;-61
2023/07/21 04:06:29;;;;;;;0.10;0.10;;;;;;;21.10;65.32;101214.31;5011950;28;20070;-60
2023/07/21 04:08:55;;;;;;;0.10;0.10;;;;;;;21.24;63.63;101207.09;5026262;28;20052;-62
2023/07/21 04:11:21;;;;;;;0.13;0.13;;;;;;;21.39;63.66;101209.66;5014237;28;20257;-61
2023/07/21 04:13:46;;;;;;;0.10;0.10;;;;;;;21.34;63.32;101209.72;5028294;28;20534;-61
2023/07/21 04:16:11;;;;;;;0.10;0.10;;;;;;;21.20;64.62;101208.75;5010765;28;20049;-61
2023/07/21 04:18:38;;;;;;;0.10;0.10;;;;;;;21.42;63.28;101203.63;5028287;28;20041;-62
2023/07/21 04:21:04;;;;;;;0.20;0.20;;;;;;;21.53;63.35;101202.44;5028485;28;20321;-62
2023/07/21 04:23:29;;;;;;;0.10;0.10;;;;;;;21.33;64.79;101201.78;5031432;28;20457;-61
2023/07/21 04:25:54;;;;;;;0.10;0.10;;;;;;;21.23;64.82;101189.03;5032224;28;20041;-60
2023/07/21 04:28:20;;;;;;;0.20;0.20;;;;;;;21.28;64.88;101194.47;5032272;28;20075;-62
2023/07/21 04:30:47;;;;;;;0.10;0.10;;;;;;;21.26;64.33;101195.84;5032654;28;20129;-61
2023/07/21 04:33:13;;;;;;;0.10;0.10;;;;;;;21.63;63.98;101194.13;5032194;28;20401;-62
2023/07/21 04:35:45;;;;;;;0.10;0.10;;;;;;;21.78;63.27;101199.41;5032102;28;20095;-62
2023/07/21 04:38:11;;;;;;;0.10;0.10;;;;;;;21.37;64.84;101202.84;5031428;28;20033;-61
2023/07/21 04:40:36;;;;;;;0.10;0.10;;;;;;;21.57;64.05;101208.13;5031083;28;20064;-60
2023/07/21 04:43:02;;;;;;;0.10;0.10;;;;;;;21.29;64.46;101204.28;5031905;28;20037;-61
2023/07/21 04:45:27;;;;;;;0.10;0.10;;;;;;;21.24;64.48;101198.88;5032236;28;20029;-62
2023/07/21 04:47:53;;;;;;;0.10;0.10;;;;;;;21.57;63.49;101205.41;5031854;28;20046;-61
2023/07/21 04:50:18;;;;;;;0.15;0.15;;;;;;;21.49;63.18;101198.63;5031901;28;20041;-61
2023/07/21 04:52:44;;;;;;;0.10;0.10;;;;;;;21.46;63.20;101201.13;5031416;28;20065;-61
2023/07/21 04:55:10;;;;;;;0.10;0.10;;;;;;;21.36;63.48;101190.28;5032078;28;20021;-62
2023/07/21 04:57:35;;;;;;;0.10;0.10;;;;;;;21.71;62.17;101188.00;5031489;28;20425;-60
2023/07/21 05:00:01;;;;;;;0.10;0.10;;;;;;;21.66;62.45;101196.25;5031422;28;20094;-61
2023/07/21 05:02:30;;;;;;;0.10;0.10;;;;;;;21.30;63.50;101194.19;5031300;28;20125;-61
2023/07/21 05:04:57;;;;;;;0.10;0.10;;;;;;;21.42;62.92;101189.97;5031439;28;20030;-61
2023/07/21 05:07:23;;;;;;;0.10;0.10;;;;;;;21.52;63.12;101186.31;5031336;28;20055;-61
2023/07/21 05:09:48;;;;;;;0.10;0.10;;;;;;;21.43;64.06;101198.97;5031795;28;20029;-63
2023/07/21 05:12:14;;;;;;;0.10;0.10;;;;;;;21.29;64.43;101196.09;5031295;28;20049;-62
2023/07/21 05:14:39;;;;;;;0.10;0.10;;;;;;;21.36;63.77;101199.31;5031306;28;20041;-62
2023/07/21 05:17:04;;;;;;;0.10;0.10;;;;;;;21.53;63.14;101190.66;5031129;28;20042;-63
2023/07/21 05:19:30;;;;;;;0.10;0.10;;;;;;;21.59;63.45;101190.34;5030810;28;20048;-62
2023/07/21 05:21:55;;;;;;;0.10;0.10;;;;;;;21.51;62.43;101196.44;5031680;28;20022;-61
2023/07/21 05:24:22;;;;;;;0.10;0.10;;;;;;;21.88;61.39;101190.31;5030857;28;20033;-62
2023/07/21 05:26:48;;;;;;;0.10;0.10;;;;;;;21.76;61.41;101192.59;5030946;28;20057;-61
2023/07/21 05:29:14;;;;;;;0.10;0.10;;;;;;;21.83;61.60;101187.63;5031411;28;20529;-61
2023/07/21 05:31:39;;;;;;;0.10;0.10;;;;;;;21.75;62.24;101188.25;5030942;28;20092;-62
2023/07/21 05:34:07;;;;;;;0.10;0.10;;;;;;;21.71;62.42;101192.66;5030260;28;20034;-61
2023/07/21 05:36:33;;;;;;;0.10;0.10;;;;;;;21.29;63.53;101189.78;5029731;28;20071;-62
2023/07/21 05:38:58;;;;;;;0.10;0.10;;;;;;;21.49;63.39;101197.81;5030724;28;20044;-63
2023/07/21 05:41:24;;;;;;;0.10;0.10;;;;;;;21.63;62.70;101196.03;5030728;28;20033;-61
2023/07/21 05:43:49;;;;;;;0.10;0.10;;;;;;;21.74;61.82;101194.81;5030446;28;20033;-62
2023/07/21 05:46:15;;;;;;;0.10;0.10;;;;;;;21.61;62.21;101192.78;5031222;28;20018;-62
2023/07/21 05:48:41;;;;;;;0.10;0.10;;;;;;;21.50;63.21;101192.03;5031232;28;20022;-62
2023/07/21 05:51:12;;;;;;;0.10;0.10;;;;;;;21.67;63.54;101202.56;5030442;28;20037;-61
2023/07/21 05:53:37;;;;;;;0.10;0.10;;;;;;;21.42;63.85;101194.63;5030820;28;20159;-62
2023/07/21 05:56:05;;;;;;;0.10;0.10;;;;;;;21.67;63.15;101197.09;5030531;28;20532;-60
2023/07/21 05:58:32;;;;;;;0.10;0.10;;;;;;;21.50;63.53;101186.59;5030535;28;20523;-62
2023/07/21 06:00:58;;;;;;;0.10;0.10;;;;;;;21.06;65.13;101196.03;5030902;28;20089;-63
2023/07/21 06:03:25;;;;;;;0.10;0.10;;;;;;;21.62;63.66;101188.94;5030439;28;20045;-61
2023/07/21 06:05:52;;;;;;;0.10;0.10;;;;;;;21.91;62.90;101197.94;5030150;28;20072;-63
2023/07/21 06:08:17;;;;;;;0.10;0.10;;;;;;;21.79;62.66;101198.31;5030308;28;20025;-60
2023/07/21 06:10:42;;;;;;;0.15;0.15;;;;;;;21.83;62.68;101201.31;5030507;28;20041;-62
2023/07/21 06:13:08;;;;;;;0.13;0.13;;;;;;;21.48;64.41;101198.94;5030600;28;20029;-63
2023/07/21 06:15:36;;;;;;;0.20;0.20;;;;;;;21.71;64.11;101187.19;5030167;28;20029;-62
2023/07/21 06:18:03;;;;;;;0.20;0.20;;;;;;;21.96;63.99;101189.66;5030543;28;20041;-62
2023/07/21 06:20:28;;;;;;;0.00;0.00;;;;;;;21.98;63.00;101192.09;5047446;28;20033;-62
2023/07/21 06:22:54;;;;;;;0.10;0.10;;;;;;;22.42;61.85;101192.63;5049869;28;20483;-62
2023/07/21 06:25:19;;;;;;;0.10;0.10;;;;;;;22.16;61.90;101199.53;5049817;28;20028;-61
2023/07/21 06:27:47;;;;;;;0.10;0.10;;;;;;;22.05;61.80;101196.13;5050492;28;20104;-61
2023/07/21 06:30:13;;;;;;;0.10;0.10;;;;;;;22.31;61.17;101188.41;5049939;28;20033;-62
2023/07/21 06:32:40;;;;;;;0.10;0.10;;;;;;;22.61;59.99;101186.09;5049809;28;20044;-62
2023/07/21 06:35:06;;;;;;;0.10;0.10;;;;;;;22.67;58.00;101182.16;5049744;28;20036;-61
2023/07/21 06:37:33;;;;;;;0.10;0.10;;;;;;;22.83;57.93;101174.50;5049792;28;20021;-62
2023/07/21 06:39:59;;;;;;;0.10;0.10;;;;;;;22.91;56.36;101170.28;5050401;28;20029;-61
2023/07/21 06:42:24;;;;;;;0.10;0.10;;;;;;;23.02;55.84;101180.75;5049593;28;20059;-61
2023/07/21 06:44:50;;;;;;;0.10;0.10;;;;;;;23.10;55.38;101171.03;5032213;28;20033;-62
2023/07/21 06:47:16;;;;;;;0.10;0.10;;;;;;;23.18;54.40;101173.91;5029414;28;20041;-62
2023/07/21 06:49:42;;;;;;;0.10;0.10;;;;;;;23.66;54.19;101173.63;5029776;28;20489;-63
2023/07/21 06:52:08;;;;;;;0.10;0.10;;;;;;;23.16;55.04;101175.31;5030096;28;20080;-63
2023/07/21 06:54:35;;;;;;;0.10;0.10;;;;;;;23.44;52.98;101171.56;5029467;28;20493;-60
2023/07/21 06:57:00;;;;;;;0.10;0.10;;;;;;;23.42;54.33;101171.06;5029472;28;20040;-63
2023/07/21 06:59:26;;;;;;;0.00;0.00;;;;;;;23.79;52.07;101175.56;5029487;28;20033;-61
2023/07/21 07:01:51;;;;;;;0.13;0.13;;;;;;;23.63;52.06;101163.25;5029121;28;20370;-62
2023/07/21 07:04:16;;;;;;;0.10;0.10;;;;;;;23.62;52.93;101172.59;5029737;28;20033;-61
2023/07/21 07:06:42;;;;;;;0.10;0.10;;;;;;;23.46;52.54;101169.34;5029708;28;20469;-63
2023/07/21 07:09:08;;;;;;;0.10;0.10;;;;;;;23.28;52.53;101173.75;5029355;28;20438;-61
2023/07/21 07:11:34;;;;;;;0.00;0.00;;;;;;;23.32;52.89;101174.81;5029109;28;20041;-63
2023/07/21 07:13:59;;;;;;;0.10;0.10;;;;;;;22.86;54.17;101173.09;5028141;28;20033;-63
2023/07/21 07:16:25;;;;;;;0.10;0.10;;;;;;;23.29;52.96;101164.38;5029057;28;20142;-61
2023/07/21 07:18:51;;;;;;;0.10;0.10;;;;;;;24.13;51.43;101168.56;5029935;28;20076;-64
2023/07/21 07:21:16;;;;;;;0.00;0.00;;;;;;;23.68;51.88;101157.66;5029364;28;20489;-61
2023/07/21 07:23:42;;;;;;;0.05;0.05;;;;;;;23.34;52.98;101166.25;5029320;28;20453;-62
2023/07/21 07:26:07;;;;;;;0.10;0.10;;;;;;;23.73;50.65;101168.53;5029087;28;20497;-62
2023/07/21 07:28:33;;;;;;;0.00;0.00;;;;;;;23.43;52.41;101168.00;5029181;28;20042;-61
2023/07/21 07:31:04;;;;;;;0.00;0.00;;;;;;;24.16;50.28;101176.19;5029849;28;20048;-63
2023/07/21 07:33:29;;;;;;;0.00;0.00;;;;;;;23.32;51.68;101174.81;5029194;28;20788;-61
2023/07/21 07:35:54;;;;;;;0.00;0.00;;;;;;;23.04;54.05;101177.72;5011307;28;20073;-61
2023/07/21 07:38:30;;;;;;;0.10;0.10;;;;;;;23.89;52.44;101175.34;5028885;28;20040;-63
2023/07/21 07:41:05;;;;;;;0.10;0.10;;;;;;;24.54;49.95;101173.13;5029084;28;20180;-62
2023/07/21 07:43:32;;;;;;;0.00;0.00;;;;;;;24.92;48.91;101171.72;5014570;28;20018;-63
2023/07/21 07:45:57;;;;;;;0.00;0.00;;;;;;;24.66;48.30;101167.91;5029570;28;20462;-62
2023/07/21 07:48:23;;;;;;;0.00;0.00;;;;;;;25.08;47.59;101153.72;5028894;28;20041;-60
2023/07/21 07:50:51;;;;;;;0.00;0.00;;;;;;;25.06;47.00;101145.75;5028920;28;20037;-61
2023/07/21 07:53:16;;;;;;;0.00;0.00;;;;;;;25.56;46.00;101151.06;5028989;28;20025;-63
2023/07/21 07:55:42;;;;;;;0.00;0.00;;;;;;;25.37;45.73;101151.28;5029041;28;20060;-62
2023/07/21 07:58:09;;;;;;;0.00;0.00;;;;;;;25.78;45.30;101151.81;5032555;28;20033;-61
2023/07/21 08:00:36;;;;;;;0.00;0.00;;;;;;;24.64;46.98;101161.91;5032666;28;20044;-63
2023/07/21 08:03:06;;;;;;;0.00;0.00;;;;;;;24.95;45.32;101151.81;5049247;28;20076;-61
2023/07/21 08:05:32;;;;;;;0.00;0.00;;;;;;;24.52;46.11;101167.13;5052746;28;20078;-64
2023/07/21 08:08:01;;;;;;;0.00;0.00;;;;;;;24.68;46.03;101157.41;5038443;28;20450;-63
2023/07/21 08:10:28;;;;;;;0.00;0.00;;;;;;;25.00;45.27;101158.00;5032676;28;20029;-61
2023/07/21 08:12:55;;;;;;;0.00;0.00;;;;;;;25.36;45.33;101154.31;5033136;28;20362;-62
2023/07/21 08:15:21;;;;;;;0.00;0.00;;;;;;;25.04;46.15;101156.25;5032493;28;20033;-61
2023/07/21 08:17:46;;;;;;;0.00;0.00;;;;;;;25.56;44.42;101162.06;5032297;28;20042;-61
2023/07/21 08:20:12;;;;;;;0.00;0.00;;;;;;;25.06;45.16;101153.22;5032600;28;20030;-62
2023/07/21 08:22:37;;;;;;;0.00;0.00;;;;;;;25.32;44.59;101153.38;5032454;28;20044;-62
2023/07/21 08:25:05;;;;;;;0.00;0.00;;;;;;;25.11;44.00;101150.31;5033035;28;20048;-62
2023/07/21 08:27:30;;;;;;;0.00;0.00;;;;;;;25.14;44.42;101155.19;5032285;28;20036;-63
2023/07/21 08:29:57;;;;;;;0.00;0.00;;;;;;;25.00;43.99;101154.47;5032163;28;20033;-64
2023/07/21 08:32:22;;;;;;;0.00;0.00;;;;;;;24.84;42.90;101161.47;5032642;28;20513;-61
2023/07/21 08:34:47;;;;;;;0.00;0.00;;;;;;;24.46;44.41;101162.88;5032461;28;20041;-62
2023/07/21 08:37:13;;;;;;;0.00;0.00;;;;;;;25.43;43.03;101158.31;5031947;28;20026;-62
2023/07/21 08:39:38;;;;;;;0.00;0.00;;;;;;;25.43;40.78;101157.50;5032929;28;20032;-63
2023/07/21 08:42:08;;;;;;;0.00;0.00;;;;;;;25.84;40.52;101157.97;5032157;28;20583;-62
2023/07/21 08:44:35;;;;;;;0.00;0.00;;;;;;;25.72;40.38;101155.03;5032045;28;20528;-61
2023/07/21 08:47:01;;;;;;;0.00;0.00;;;;;;;25.48;42.00;101163.66;5032141;28;20038;-61
2023/07/21 08:49:27;;;;;;;0.00;0.00;;;;;;;25.34;40.26;101151.91;5032220;28;20029;-63
2023/07/21 08:51:52;;;;;;;0.00;0.00;;;;;;;26.27;41.07;101150.66;5032554;28;20500;-62
2023/07/21 08:54:17;;;;;;;0.00;0.00;;;;;;;26.33;43.31;101154.06;5031793;28;20037;-62
2023/07/21 08:56:43;;;;;;;0.00;0.00;;;;;;;25.90;40.78;101152.03;5032013;28;20029;-61
2023/07/21 08:59:08;;;;;;;0.00;0.00;;;;;;;26.04;39.31;101158.19;5031964;28;20055;-63
2023/07/21 09:01:34;;;;;;;0.00;0.00;;;;;;;26.62;39.51;101152.28;5036047;28;20144;-62
2023/07/21 09:04:00;;;;;;;0.00;0.00;;;;;;;26.05;40.22;101142.47;5039522;28;20385;-61
2023/07/21 09:06:25;;;;;;;0.00;0.00;;;;;;;26.40;40.76;101149.69;5031620;28;20076;-62
2023/07/21 09:08:53;;;;;;;0.00;0.00;;;;;;;26.76;40.23;101138.38;5031254;28;20076;-64
2023/07/21 09:11:18;;;;;;;0.00;0.00;;;;;;;26.33;41.60;101146.63;5031403;28;20030;-63
2023/07/21 09:13:56;;;;;;;0.00;0.00;;;;;;;25.70;41.09;101141.59;5031365;28;20045;-63
2023/07/21 09:16:22;;;;;;;0.00;0.00;;;;;;;26.70;40.20;101142.41;5031237;28;20120;-61
2023/07/21 09:18:48;;;;;;;0.00;0.00;;;;;;;25.70;41.98;101149.03;5032132;28;20198;-62
2023/07/21 09:21:21;;;;;;;0.00;0.00;;;;;;;25.95;40.64;101145.53;5031286;28;20389;-63
2023/07/21 09:23:47;;;;;;;0.00;0.00;;;;;;;24.86;43.46;101139.97;5031158;28;20121;-64
2023/07/21 09:26:20;;;;;;;0.00;0.00;;;;;;;26.45;40.42;101155.06;5031158;28;20034;-62
2023/07/21 09:28:46;;;;;;;0.00;0.00;;;;;;;26.67;39.94;101148.56;5031343;28;20029;-62
2023/07/21 09:31:13;;;;;;;0.00;0.00;;;;;;;26.12;40.12;101144.81;5031941;28;20052;-61
2023/07/21 09:33:42;;;;;;;0.00;0.00;;;;;;;27.21;36.58;101142.34;5013158;28;20132;-63
2023/07/21 09:36:13;;;;;;;0.00;0.00;;;;;;;26.38;38.03;101143.69;5031356;28;20034;-61
2023/07/21 09:38:39;;;;;;;0.00;0.00;;;;;;;26.74;39.15;101152.50;5013495;28;20441;-63
2023/07/21 09:41:09;;;;;;;0.00;0.00;;;;;;;26.76;40.41;101141.13;5031519;28;20068;-62
2023/07/21 09:43:34;;;;;;;0.00;0.00;;;;;;;26.90;40.86;101148.09;5030763;28;20061;-62
2023/07/21 09:46:02;;;;;;;0.00;0.00;;;;;;;26.06;42.42;101144.94;5031589;28;20057;-63
2023/07/21 09:48:28;;;;;;;0.00;0.00;;;;;;;25.20;43.58;101143.75;5031026;28;20033;-61
2023/07/21 09:51:03;;;;;;;0.00;0.00;;;;;;;25.49;44.12;101147.97;5030576;28;20026;-63
2023/07/21 09:53:49;;;;;;;0.00;0.00;;;;;;;25.46;43.69;101140.34;5030897;28;20026;-61
2023/07/21 09:56:15;;;;;;;0.00;0.00;;;;;;;25.61;41.96;101140.72;5030492;28;20044;-61
2023/07/21 09:58:55;;;;;;;0.00;0.00;;;;;;;25.70;41.91;101143.50;5031132;28;20037;-61
2023/07/21 10:01:23;;;;;;;0.00;0.00;;;;;;;26.13;40.64;101135.38;5010312;28;20036;-62
2023/07/21 10:03:48;;;;;;;0.00;0.00;;;;;;;25.59;41.83;101139.44;5011404;28;20443;-62
2023/07/21 10:06:15;;;;;;;0.00;0.00;;;;;;;25.58;41.53;101135.03;5010952;28;20141;-63
2023/07/21 10:08:41;;;;;;;0.00;0.00;;;;;;;25.69;39.58;101136.41;5011143;28;20134;-63
2023/07/21 10:11:07;;;;;;;0.00;0.00;;;;;;;25.95;37.56;101137.25;5010684;28;20030;-61
2023/07/21 10:13:33;;;;;;;0.00;0.00;;;;;;;25.65;39.59;101138.94;5010686;28;20029;-61
2023/07/21 10:16:07;;;;;;;0.00;0.00;;;;;;;25.89;38.08;101142.13;5019351;28;20099;-61
2023/07/21 10:18:32;;;;;;;0.00;0.00;;;;;;;25.99;36.54;101136.31;5030051;28;20080;-62
2023/07/21 10:20:58;;;;;;;0.00;0.00;;;;;;;26.57;36.04;101133.19;5029807;28;20501;-62
2023/07/21 10:23:29;;;;;;;0.00;0.00;;;;;;;25.75;35.90;101135.13;5030377;28;20088;-62
2023/07/21 10:25:56;;;;;;;0.00;0.00;;;;;;;26.49;36.75;101136.75;5030519;28;20047;-61
2023/07/21 10:28:24;;;;;;;0.00;0.00;;;;;;;26.66;37.00;101142.25;5012605;28;20389;-62
2023/07/21 10:30:50;;;;;;;0.00;0.00;;;;;;;26.96;36.89;101134.94;5030487;28;20120;-62
2023/07/21 10:33:18;;;;;;;0.00;0.00;;;;;;;27.95;35.52;101130.88;5030010;28;20460;-63
2023/07/21 10:35:43;;;;;;;0.00;0.00;;;;;;;27.67;34.52;101136.84;5030422;28;20057;-64
2023/07/21 10:38:14;;;;;;;0.00;0.00;;;;;;;27.83;32.31;101128.00;5030206;28;20076;-63
2023/07/21 10:40:47;;;;;;;0.00;0.00;;;;;;;27.81;32.98;101126.34;5030374;28;20505;-61
2023/07/21 10:43:13;;;;;;;0.00;0.00;;;;;;;27.89;32.73;101138.53;5030284;28;20355;-63
2023/07/21 10:45:38;;;;;;;0.00;0.00;;;;;;;28.30;31.88;101132.28;5029962;28;20045;-62
2023/07/21 10:48:13;;;;;;;0.00;0.00;;;;;;;27.89;32.65;101135.75;5029824;28;20037;-63
2023/07/21 10:50:48;;;;;;;0.00;0.00;;;;;;;28.04;35.95;101126.91;5029923;28;20033;-63
2023/07/21 10:53:14;;;;;;;0.00;0.00;;;;;;;28.06;32.97;101132.91;5029609;28;20042;-62
2023/07/21 10:55:40;;;;;;;0.00;0.00;;;;;;;27.58;34.35;101121.44;5029602;28;20087;-63
2023/07/21 10:58:05;;;;;;;0.00;0.00;;;;;;;27.84;34.53;101122.13;5030229;28;20481;-64
2023/07/21 11:00:49;;;;;;;0.00;0.00;;;;;;;27.13;33.22;101129.38;5029543;28;20068;-62
2023/07/21 11:03:15;;;;;;;0.00;0.00;;;;;;;26.29;35.50;101117.25;5029096;28;20049;-63
2023/07/21 11:05:41;;;;;;;0.00;0.00;;;;;;;27.01;34.47;101126.47;5029081;28;20044;-62
2023/07/21 11:08:24;;;;;;;0.00;0.00;;;;;;;26.64;34.88;101121.63;5029348;28;20029;-62
2023/07/21 11:10:49;;;;;;;0.00;0.00;;;;;;;27.26;35.44;101120.06;5029268;28;20045;-63
2023/07/21 11:13:14;;;;;;;0.00;0.00;;;;;;;27.47;32.80;101122.97;5029071;28;20037;-61
2023/07/21 11:15:40;;;;;;;0.00;0.00;;;;;;;27.07;34.17;101110.56;5029280;28;20084;-61
2023/07/21 11:18:05;;;;;;;0.00;0.00;;;;;;;27.17;33.96;101113.78;5028815;28;20623;-61
2023/07/21 11:20:30;;;;;;;0.00;0.00;;;;;;;27.43;34.19;101106.25;5029284;28;20267;-61
2023/07/21 11:22:58;;;;;;;0.00;0.00;;;;;;;27.30;34.31;101111.97;5029229;28;20041;-62